sensor_id;sensor_type;location;lat;lon;timestamp;pressure;altitude;pressure_sealevel;temperature;humidity
23341;BME280;12239;53.404;23.492;2023-05-03T14:09:34;77565.71;;;-147.78;31.78
23341;BME280;12239;53.404;23.492;2023-05-03T14:12:06;77557.52;;;-147.78;31.39
23341;BME280;12239;53.404;23.492;2023-05-03T14:14:36;77535.37;;;-147.78;31.69
23341;BME280;12239;53.404;23.492;2023-05-03T14:17:05;77523.88;;;-147.78;30.56
23341;BME280;12239;53.404;23.492;2023-05-03T14:19:35;77539.89;;;-147.78;30.65
23341;BME280;12239;53.404;23.492;2023-05-03T14:22:05;77548.48;;;-147.78;30.95
23341;BME280;12239;53.404;23.492;2023-05-03T14:24:35;77528.39;;;-147.78;31.80
23341;BME280;12239;53.404;23.492;2023-05-03T14:27:04;77500.10;;;-147.78;31.01
23341;BME280;12239;53.404;23.492;2023-05-03T14:29:34;77480.41;;;-147.78;31.22
23341;BME280;12239;53.404;23.492;2023-05-03T14:32:04;77461.55;;;-147.78;30.84
23341;BME280;12239;53.404;23.492;2023-05-03T14:34:33;77449.66;;;-147.78;30.90
23341;BME280;12239;53.404;23.492;2023-05-03T14:37:03;77437.36;;;-147.78;31.17
23341;BME280;12239;53.404;23.492;2023-05-03T14:39:32;77423.41;;;-147.78;31.04
23341;BME280;12239;53.404;23.492;2023-05-03T14:42:02;77416.85;;;-147.78;30.68
23341;BME280;12239;53.404;23.492;2023-05-03T14:44:31;77405.38;;;-147.78;30.64
23341;BME280;12239;53.404;23.492;2023-05-03T14:47:00;77401.27;;;-147.78;30.41
23341;BME280;12239;53.404;23.492;2023-05-03T14:49:30;77356.16;;;-147.78;30.04
23341;BME280;12239;53.404;23.492;2023-05-03T14:52:04;77281.93;;;-147.78;29.40
23341;BME280;12239;53.404;23.492;2023-05-03T14:54:34;77204.02;;;-147.78;28.64
23341;BME280;12239;53.404;23.492;2023-05-03T14:57:04;77139.64;;;-147.78;27.33
23341;BME280;12239;53.404;23.492;2023-05-03T15:02:40;77065.83;;;-147.78;26.69
23341;BME280;12239;53.404;23.492;2023-05-03T15:05:10;77050.66;;;-147.78;26.29
23341;BME280;12239;53.404;23.492;2023-05-03T15:07:39;77087.98;;;-147.78;26.62
23341;BME280;12239;53.404;23.492;2023-05-03T15:10:09;77160.55;;;-147.78;27.33
23341;BME280;12239;53.404;23.492;2023-05-03T15:12:38;77215.91;;;-147.78;28.07
23341;BME280;12239;53.404;23.492;2023-05-03T15:15:09;77268.40;;;-147.78;28.79
23341;BME280;12239;53.404;23.492;2023-05-03T15:17:38;77317.20;;;-147.78;29.47
23341;BME280;12239;53.404;23.492;2023-05-03T15:20:09;77361.08;;;-147.78;29.75
23341;BME280;12239;53.404;23.492;2023-05-03T15:22:40;77411.52;;;-147.78;30.06
23341;BME280;12239;53.404;23.492;2023-05-03T15:25:10;77450.08;;;-147.78;30.71
23341;BME280;12239;53.404;23.492;2023-05-03T15:27:39;77477.95;;;-147.78;31.22
23341;BME280;12239;53.404;23.492;2023-05-03T15:30:09;77505.02;;;-147.78;31.24
23341;BME280;12239;53.404;23.492;2023-05-03T15:32:41;77526.76;;;-147.78;31.60
23341;BME280;12239;53.404;23.492;2023-05-03T15:35:11;77543.57;;;-147.78;32.18
23341;BME280;12239;53.404;23.492;2023-05-03T15:37:40;77554.64;;;-147.78;32.32
23341;BME280;12239;53.404;23.492;2023-05-03T15:40:10;77542.75;;;-147.78;32.43
23341;BME280;12239;53.404;23.492;2023-05-03T15:42:40;77528.80;;;-147.78;31.91
23341;BME280;12239;53.404;23.492;2023-05-03T15:45:10;77459.09;;;-147.78;31.55
23341;BME280;12239;53.404;23.492;2023-05-03T15:47:39;77363.54;;;-147.78;31.08
23341;BME280;12239;53.404;23.492;2023-05-03T15:50:10;77266.35;;;-147.78;30.42
23341;BME280;12239;53.404;23.492;2023-05-03T15:52:39;77196.64;;;-147.78;29.09
23341;BME280;12239;53.404;23.492;2023-05-03T15:55:09;77181.88;;;-147.78;29.16
23341;BME280;12239;53.404;23.492;2023-05-03T15:57:39;77209.77;;;-147.78;28.47
23341;BME280;12239;53.404;23.492;2023-05-03T16:00:11;77265.13;;;-147.78;28.97
23341;BME280;12239;53.404;23.492;2023-05-03T16:02:40;77282.75;;;-147.78;29.33
23341;BME280;12239;53.404;23.492;2023-05-03T16:05:10;77302.02;;;-147.78;29.20
23341;BME280;12239;53.404;23.492;2023-05-03T16:07:39;77339.34;;;-147.78;29.80
23341;BME280;12239;53.404;23.492;2023-05-03T16:13:35;77395.12;;;-147.78;29.98
23341;BME280;12239;53.404;23.492;2023-05-03T16:16:03;77392.23;;;-147.78;30.23
23341;BME280;12239;53.404;23.492;2023-05-03T16:18:50;77421.77;;;-147.78;30.53
23341;BME280;12239;53.404;23.492;2023-05-03T16:21:38;77448.42;;;-147.78;30.67
23341;BME280;12239;53.404;23.492;2023-05-03T16:24:25;77475.90;;;-147.78;30.76
23341;BME280;12239;53.404;23.492;2023-05-03T16:26:54;77493.54;;;-147.78;30.77
23341;BME280;12239;53.404;23.492;2023-05-03T16:29:21;77468.93;;;-147.78;31.12
23341;BME280;12239;53.404;23.492;2023-05-03T16:31:48;77405.78;;;-147.78;30.65
23341;BME280;12239;53.404;23.492;2023-05-03T16:34:19;77365.59;;;-147.78;29.98
23341;BME280;12239;53.404;23.492;2023-05-03T16:36:49;77337.70;;;-147.78;30.06
23341;BME280;12239;53.404;23.492;2023-05-03T16:39:16;77313.92;;;-147.78;29.19
23341;BME280;12239;53.404;23.492;2023-05-03T16:41:44;77283.58;;;-147.78;29.04
23341;BME280;12239;53.404;23.492;2023-05-03T16:44:11;77235.19;;;-147.78;29.01
23341;BME280;12239;53.404;23.492;2023-05-03T16:46:39;77184.75;;;-147.78;28.33
23341;BME280;12239;53.404;23.492;2023-05-03T16:49:06;77143.33;;;-147.78;27.61
23341;BME280;12239;53.404;23.492;2023-05-03T16:51:34;77115.45;;;-147.78;27.59
23341;BME280;12239;53.404;23.492;2023-05-03T16:54:04;77082.23;;;-147.78;27.37
23341;BME280;12239;53.404;23.492;2023-05-03T16:56:31;77081.83;;;-147.78;27.16
23341;BME280;12239;53.404;23.492;2023-05-03T16:58:59;77071.16;;;-147.78;27.25
23341;BME280;12239;53.404;23.492;2023-05-03T17:01:27;77081.00;;;-147.78;27.06
23341;BME280;12239;53.404;23.492;2023-05-03T17:03:54;77119.95;;;-147.78;27.18
23341;BME280;12239;53.404;23.492;2023-05-03T17:06:42;77167.93;;;-147.78;27.54
23341;BME280;12239;53.404;23.492;2023-05-03T17:09:09;77201.15;;;-147.78;28.25
23341;BME280;12239;53.404;23.492;2023-05-03T17:11:38;77218.37;;;-147.78;28.39
23341;BME280;12239;53.404;23.492;2023-05-03T17:14:08;77253.23;;;-147.78;28.14
23341;BME280;12239;53.404;23.492;2023-05-03T17:16:38;77292.60;;;-147.78;28.49
23341;BME280;12239;53.404;23.492;2023-05-03T17:19:06;77330.73;;;-147.78;28.83
23341;BME280;12239;53.404;23.492;2023-05-03T17:21:33;77363.54;;;-147.78;29.11
23341;BME280;12239;53.404;23.492;2023-05-03T17:24:21;77400.86;;;-147.78;29.39
23341;BME280;12239;53.404;23.492;2023-05-03T17:26:48;77433.26;;;-147.78;29.60
23341;BME280;12239;53.404;23.492;2023-05-03T17:29:15;77470.16;;;-147.78;29.86
23341;BME280;12239;53.404;23.492;2023-05-03T17:31:42;77498.05;;;-147.78;30.35
23341;BME280;12239;53.404;23.492;2023-05-03T17:34:09;77527.99;;;-147.78;30.77
23341;BME280;12239;53.404;23.492;2023-05-03T17:36:36;77558.34;;;-147.78;30.83
23341;BME280;12239;53.404;23.492;2023-05-03T17:39:04;77589.91;;;-147.78;31.14
23341;BME280;12239;53.404;23.492;2023-05-03T17:41:39;77619.44;;;-147.78;31.41
23341;BME280;12239;53.404;23.492;2023-05-03T17:44:07;77649.38;;;-147.78;31.75
23341;BME280;12239;53.404;23.492;2023-05-03T17:46:37;77672.35;;;-147.78;31.96
23341;BME280;12239;53.404;23.492;2023-05-03T17:49:05;77697.36;;;-147.78;32.38
23341;BME280;12239;53.404;23.492;2023-05-03T17:51:32;77719.91;;;-147.78;32.55
23341;BME280;12239;53.404;23.492;2023-05-03T17:54:00;77741.66;;;-147.78;32.80
23341;BME280;12239;53.404;23.492;2023-05-03T17:56:27;77759.70;;;-147.78;33.02
23341;BME280;12239;53.404;23.492;2023-05-03T17:58:54;77777.75;;;-147.78;33.28
23341;BME280;12239;53.404;23.492;2023-05-03T18:01:21;77798.66;;;-147.78;33.55
23341;BME280;12239;53.404;23.492;2023-05-03T18:03:49;77815.48;;;-147.78;33.86
23341;BME280;12239;53.404;23.492;2023-05-03T18:06:16;77833.11;;;-147.78;33.95
23341;BME280;12239;53.404;23.492;2023-05-03T18:08:43;77849.52;;;-147.78;34.00
23341;BME280;12239;53.404;23.492;2023-05-03T18:11:11;77866.74;;;-147.78;34.35
23341;BME280;12239;53.404;23.492;2023-05-03T18:13:38;77882.74;;;-147.78;34.69
23341;BME280;12239;53.404;23.492;2023-05-03T18:16:07;77900.79;;;-147.78;34.96
23341;BME280;12239;53.404;23.492;2023-05-03T18:18:35;77917.60;;;-147.78;35.15
23341;BME280;12239;53.404;23.492;2023-05-03T18:21:02;77933.19;;;-147.78;35.24
23341;BME280;12239;53.404;23.492;2023-05-03T18:23:30;77949.18;;;-147.78;35.67
23341;BME280;12239;53.404;23.492;2023-05-03T18:25:57;77963.13;;;-147.78;36.27
23341;BME280;12239;53.404;23.492;2023-05-03T18:28:25;77981.17;;;-147.78;36.73
23341;BME280;12239;53.404;23.492;2023-05-03T18:30:53;77994.30;;;-147.78;37.66
23341;BME280;12239;53.404;23.492;2023-05-03T18:33:21;78012.76;;;-147.78;39.06
23341;BME280;12239;53.404;23.492;2023-05-03T18:35:48;78034.91;;;-147.78;39.86
23341;BME280;12239;53.404;23.492;2023-05-03T18:38:16;78056.23;;;-147.78;41.09
23341;BME280;12239;53.404;23.492;2023-05-03T18:40:44;78077.16;;;-147.78;41.65
23341;BME280;12239;53.404;23.492;2023-05-03T18:43:12;78098.89;;;-147.78;41.83
23341;BME280;12239;53.404;23.492;2023-05-03T18:45:39;78116.52;;;-147.78;41.71
23341;BME280;12239;53.404;23.492;2023-05-03T18:48:07;78132.94;;;-147.78;41.35
23341;BME280;12239;53.404;23.492;2023-05-03T18:50:34;78148.52;;;-147.78;41.43
23341;BME280;12239;53.404;23.492;2023-05-03T18:53:22;78166.16;;;-147.78;41.67
23341;BME280;12239;53.404;23.492;2023-05-03T18:55:49;78180.92;;;-147.78;41.87
23341;BME280;12239;53.404;23.492;2023-05-03T18:58:21;78193.64;;;-147.78;42.36
23341;BME280;12239;53.404;23.492;2023-05-03T19:00:48;78202.66;;;-147.78;42.78
23341;BME280;12239;53.404;23.492;2023-05-03T19:03:20;78210.87;;;-147.78;43.08
23341;BME280;12239;53.404;23.492;2023-05-03T19:06:07;78222.77;;;-147.78;44.93
23341;BME280;12239;53.404;23.492;2023-05-03T19:08:34;78245.73;;;-147.78;45.59
23341;BME280;12239;53.404;23.492;2023-05-03T19:11:07;78257.63;;;-147.78;44.36
23341;BME280;12239;53.404;23.492;2023-05-03T19:13:35;78267.88;;;-147.78;44.26
23341;BME280;12239;53.404;23.492;2023-05-03T19:16:03;78277.72;;;-147.78;44.15
23341;BME280;12239;53.404;23.492;2023-05-03T19:18:30;78279.78;;;-147.78;44.14
23341;BME280;12239;53.404;23.492;2023-05-03T19:20:58;78283.47;;;-147.78;44.22
23341;BME280;12239;53.404;23.492;2023-05-03T19:23:25;78290.44;;;-147.78;44.84
23341;BME280;12239;53.404;23.492;2023-05-03T19:25:52;78296.59;;;-147.78;45.08
23341;BME280;12239;53.404;23.492;2023-05-03T19:28:20;78299.05;;;-147.78;45.26
23341;BME280;12239;53.404;23.492;2023-05-03T19:30:47;78309.30;;;-147.78;46.86
23341;BME280;12239;53.404;23.492;2023-05-03T19:33:17;78323.66;;;-147.78;47.05
23341;BME280;12239;53.404;23.492;2023-05-03T19:35:44;78334.73;;;-147.78;47.44
23341;BME280;12239;53.404;23.492;2023-05-03T19:38:11;78339.25;;;-147.78;47.98
23341;BME280;12239;53.404;23.492;2023-05-03T19:40:38;78347.86;;;-147.78;48.12
23341;BME280;12239;53.404;23.492;2023-05-03T19:43:06;78361.40;;;-147.78;48.07
23341;BME280;12239;53.404;23.492;2023-05-03T19:45:33;78375.34;;;-147.78;48.91
23341;BME280;12239;53.404;23.492;2023-05-03T19:48:00;78390.52;;;-147.78;49.41
23341;BME280;12239;53.404;23.492;2023-05-03T19:50:27;78406.93;;;-147.78;50.16
23341;BME280;12239;53.404;23.492;2023-05-03T19:52:54;78415.96;;;-147.78;51.03
23341;BME280;12239;53.404;23.492;2023-05-03T19:55:22;78427.85;;;-147.78;51.75
23341;BME280;12239;53.404;23.492;2023-05-03T19:57:49;78440.98;;;-147.78;52.45
23341;BME280;12239;53.404;23.492;2023-05-03T20:00:16;78452.05;;;-147.78;52.41
23341;BME280;12239;53.404;23.492;2023-05-03T20:02:46;78463.95;;;-147.78;52.50
23341;BME280;12239;53.404;23.492;2023-05-03T20:05:13;78477.48;;;-147.78;52.87
23341;BME280;12239;53.404;23.492;2023-05-03T20:07:40;78490.61;;;-147.78;53.76
23341;BME280;12239;53.404;23.492;2023-05-03T20:10:08;78499.23;;;-147.78;55.24
23341;BME280;12239;53.404;23.492;2023-05-03T20:12:35;78503.73;;;-147.78;55.20
23341;BME280;12239;53.404;23.492;2023-05-03T20:15:03;78515.64;;;-147.78;55.14
23341;BME280;12239;53.404;23.492;2023-05-03T20:17:31;78529.99;;;-147.78;55.31
23341;BME280;12239;53.404;23.492;2023-05-03T20:20:04;78538.20;;;-147.78;56.90
23341;BME280;12239;53.404;23.492;2023-05-03T20:22:32;78547.63;;;-147.78;56.14
23341;BME280;12239;53.404;23.492;2023-05-03T20:24:59;78559.94;;;-147.78;56.29
23341;BME280;12239;53.404;23.492;2023-05-03T20:27:26;78567.32;;;-147.78;56.44
23341;BME280;12239;53.404;23.492;2023-05-03T20:29:57;78573.48;;;-147.78;56.21
23341;BME280;12239;53.404;23.492;2023-05-03T20:32:24;78572.65;;;-147.78;54.89
23341;BME280;12239;53.404;23.492;2023-05-03T20:34:51;78571.02;;;-147.78;54.30
23341;BME280;12239;53.404;23.492;2023-05-03T20:37:18;78570.20;;;-147.78;53.98
23341;BME280;12239;53.404;23.492;2023-05-03T20:39:45;78569.38;;;-147.78;55.39
23341;BME280;12239;53.404;23.492;2023-05-03T20:42:13;78573.06;;;-147.78;57.49
23341;BME280;12239;53.404;23.492;2023-05-03T20:44:40;78576.75;;;-147.78;58.41
23341;BME280;12239;53.404;23.492;2023-05-03T20:47:07;78588.65;;;-147.78;58.87
23341;BME280;12239;53.404;23.492;2023-05-03T20:49:34;78599.31;;;-147.78;59.07
23341;BME280;12239;53.404;23.492;2023-05-03T20:52:02;78614.50;;;-147.78;59.30
23341;BME280;12239;53.404;23.492;2023-05-03T20:54:30;78624.34;;;-147.78;59.57
23341;BME280;12239;53.404;23.492;2023-05-03T20:56:57;78634.59;;;-147.78;61.84
23341;BME280;12239;53.404;23.492;2023-05-03T20:59:24;78643.62;;;-147.78;61.88
23341;BME280;12239;53.404;23.492;2023-05-03T21:01:52;78650.59;;;-147.78;61.32
23341;BME280;12239;53.404;23.492;2023-05-03T21:04:19;78661.26;;;-147.78;60.87
23341;BME280;12239;53.404;23.492;2023-05-03T21:06:47;78672.75;;;-147.78;61.01
23341;BME280;12239;53.404;23.492;2023-05-03T21:09:15;78686.29;;;-147.78;61.59
23341;BME280;12239;53.404;23.492;2023-05-03T21:11:42;78694.09;;;-147.78;62.74
23341;BME280;12239;53.404;23.492;2023-05-03T21:14:09;78699.00;;;-147.78;63.44
23341;BME280;12239;53.404;23.492;2023-05-03T21:16:36;78708.02;;;-147.78;64.36
23341;BME280;12239;53.404;23.492;2023-05-03T21:19:03;78708.02;;;-147.78;67.79
23341;BME280;12239;53.404;23.492;2023-05-03T21:21:31;78710.89;;;-147.78;68.51
23341;BME280;12239;53.404;23.492;2023-05-03T21:23:58;78718.29;;;-147.78;66.98
23341;BME280;12239;53.404;23.492;2023-05-03T21:26:25;78728.13;;;-147.78;66.39
23341;BME280;12239;53.404;23.492;2023-05-03T21:28:54;78731.82;;;-147.78;68.39
23341;BME280;12239;53.404;23.492;2023-05-03T21:31:22;78737.98;;;-147.78;68.27
23341;BME280;12239;53.404;23.492;2023-05-03T21:33:49;78744.54;;;-147.78;67.76
23341;BME280;12239;53.404;23.492;2023-05-03T21:36:16;78756.43;;;-147.78;67.69
23341;BME280;12239;53.404;23.492;2023-05-03T21:38:44;78765.46;;;-147.78;68.19
23341;BME280;12239;53.404;23.492;2023-05-03T21:41:11;78770.38;;;-147.78;68.68
23341;BME280;12239;53.404;23.492;2023-05-03T21:43:42;78783.92;;;-147.78;68.70
23341;BME280;12239;53.404;23.492;2023-05-03T21:46:09;78790.48;;;-147.78;70.71
23341;BME280;12239;53.404;23.492;2023-05-03T21:48:36;78795.40;;;-147.78;71.85
23341;BME280;12239;53.404;23.492;2023-05-03T21:51:03;78803.20;;;-147.78;72.28
23341;BME280;12239;53.404;23.492;2023-05-03T21:53:30;78806.07;;;-147.78;72.21
23341;BME280;12239;53.404;23.492;2023-05-03T21:55:58;78814.69;;;-147.78;71.77
23341;BME280;12239;53.404;23.492;2023-05-03T21:58:26;78820.43;;;-147.78;71.53
23341;BME280;12239;53.404;23.492;2023-05-03T22:00:53;78826.17;;;-147.78;71.63
23341;BME280;12239;53.404;23.492;2023-05-03T22:03:20;78830.69;;;-147.78;73.48
23341;BME280;12239;53.404;23.492;2023-05-03T22:05:48;78831.50;;;-147.78;73.60
23341;BME280;12239;53.404;23.492;2023-05-03T22:08:16;78833.96;;;-147.78;75.07
23341;BME280;12239;53.404;23.492;2023-05-03T22:10:43;78831.50;;;-147.78;79.91
23341;BME280;12239;53.404;23.492;2023-05-03T22:13:11;78829.87;;;-147.78;81.56
23341;BME280;12239;53.404;23.492;2023-05-03T22:15:38;78824.12;;;-147.78;82.41
23341;BME280;12239;53.404;23.492;2023-05-03T22:18:06;78818.78;;;-147.78;83.69
23341;BME280;12239;53.404;23.492;2023-05-03T22:20:33;78810.17;;;-147.78;84.58
23341;BME280;12239;53.404;23.492;2023-05-03T22:23:00;78808.12;;;-147.78;82.02
23341;BME280;12239;53.404;23.492;2023-05-03T22:25:28;78807.70;;;-147.78;80.18
23341;BME280;12239;53.404;23.492;2023-05-03T22:27:56;78815.09;;;-147.78;81.07
23341;BME280;12239;53.404;23.492;2023-05-03T22:30:23;78828.23;;;-147.78;87.50
23341;BME280;12239;53.404;23.492;2023-05-03T22:32:50;78829.45;;;-147.78;85.49
23341;BME280;12239;53.404;23.492;2023-05-03T22:35:17;78829.05;;;-147.78;82.89
23341;BME280;12239;53.404;23.492;2023-05-03T22:37:44;78826.99;;;-147.78;78.31
23341;BME280;12239;53.404;23.492;2023-05-03T22:40:12;78824.12;;;-147.78;77.25
23341;BME280;12239;53.404;23.492;2023-05-03T22:42:39;78817.14;;;-147.78;76.71
23341;BME280;12239;53.404;23.492;2023-05-03T22:45:08;78811.40;;;-147.78;77.78
23341;BME280;12239;53.404;23.492;2023-05-03T22:47:35;78810.17;;;-147.78;78.47
23341;BME280;12239;53.404;23.492;2023-05-03T22:50:03;78810.58;;;-147.78;78.41
23341;BME280;12239;53.404;23.492;2023-05-03T22:52:31;78815.09;;;-147.78;76.84
23341;BME280;12239;53.404;23.492;2023-05-03T22:54:58;78818.79;;;-147.78;74.32
23341;BME280;12239;53.404;23.492;2023-05-03T22:57:26;78820.02;;;-147.78;72.63
23341;BME280;12239;53.404;23.492;2023-05-03T22:59:53;78818.79;;;-147.78;71.92
23341;BME280;12239;53.404;23.492;2023-05-03T23:02:20;78818.79;;;-147.78;72.16
23341;BME280;12239;53.404;23.492;2023-05-03T23:04:47;78819.20;;;-147.78;72.76
23341;BME280;12239;53.404;23.492;2023-05-03T23:07:15;78824.52;;;-147.78;72.83
23341;BME280;12239;53.404;23.492;2023-05-03T23:09:42;78832.73;;;-147.78;71.36
23341;BME280;12239;53.404;23.492;2023-05-03T23:12:09;78844.63;;;-147.78;70.82
23341;BME280;12239;53.404;23.492;2023-05-03T23:14:37;78858.16;;;-147.78;70.88
23341;BME280;12239;53.404;23.492;2023-05-03T23:17:07;78871.30;;;-147.78;71.68
23341;BME280;12239;53.404;23.492;2023-05-03T23:19:35;78882.79;;;-147.78;73.57
23341;BME280;12239;53.404;23.492;2023-05-03T23:22:02;78890.98;;;-147.78;77.62
23341;BME280;12239;53.404;23.492;2023-05-03T23:24:31;78895.91;;;-147.78;78.79
23341;BME280;12239;53.404;23.492;2023-05-03T23:27:00;78904.94;;;-147.78;77.10
23341;BME280;12239;53.404;23.492;2023-05-03T23:29:27;78911.50;;;-147.78;76.57
23341;BME280;12239;53.404;23.492;2023-05-03T23:31:54;78921.35;;;-147.78;77.45
23341;BME280;12239;53.404;23.492;2023-05-03T23:34:21;78927.91;;;-147.78;77.76
23341;BME280;12239;53.404;23.492;2023-05-03T23:36:49;78939.39;;;-147.78;77.14
23341;BME280;12239;53.404;23.492;2023-05-03T23:39:16;78945.14;;;-147.78;76.63
23341;BME280;12239;53.404;23.492;2023-05-03T23:41:43;78957.45;;;-147.78;76.62
23341;BME280;12239;53.404;23.492;2023-05-03T23:44:11;78963.60;;;-147.78;77.98
23341;BME280;12239;53.404;23.492;2023-05-03T23:46:38;78967.30;;;-147.78;80.64
23341;BME280;12239;53.404;23.492;2023-05-03T23:49:05;78973.04;;;-147.78;81.71
23341;BME280;12239;53.404;23.492;2023-05-03T23:51:33;78976.33;;;-147.78;84.09
23341;BME280;12239;53.404;23.492;2023-05-03T23:54:00;78980.02;;;-147.78;82.70
23341;BME280;12239;53.404;23.492;2023-05-03T23:56:28;78987.40;;;-147.78;83.54
23341;BME280;12239;53.404;23.492;2023-05-03T23:59:16;78992.32;;;-147.78;85.03
